Time;durP1;ratioP1;P1;durP2;ratioP2;P2;SDS_P1;SDS_P2;PMS_P1;PMS_P2;Temp;Humidity;BMP_temperature;BMP_pressure;BME280_temperature;BME280_humidity;BME280_pressure;Samples;Min_cycle;Max_cycle;Signal;HPM_P1;HPM_P2
2021/05/24 00:00:36;;;;;;;5.10;2.17;;;;;;;13.65;72.05;93782.13;5052672;28;20087;-43
2021/05/24 00:03:03;;;;;;;2.63;2.17;;;;;;;13.59;72.34;93787.16;5052696;28;20060;-43
2021/05/24 00:05:31;;;;;;;3.80;2.35;;;;;;;13.53;72.89;93789.38;5052776;28;20028;-43
2021/05/24 00:07:57;;;;;;;3.10;1.67;;;;;;;13.53;73.21;93792.91;5052389;28;20063;-45
2021/05/24 00:10:25;;;;;;;2.30;1.98;;;;;;;13.56;73.02;93791.78;5052603;28;20495;-45
2021/05/24 00:12:52;;;;;;;3.03;1.63;;;;;;;13.65;73.03;93796.00;5052972;28;20032;-44
2021/05/24 00:15:23;;;;;;;1.63;1.40;;;;;;;13.76;72.16;93798.34;5052852;28;20119;-42
2021/05/24 00:17:49;;;;;;;2.75;1.63;;;;;;;13.80;70.97;93803.50;5052400;28;20048;-42
2021/05/24 00:20:16;;;;;;;3.50;1.85;;;;;;;13.73;71.13;93796.69;5052671;28;20016;-43
2021/05/24 00:22:42;;;;;;;2.35;2.13;;;;;;;13.59;72.16;93798.25;5052272;28;20028;-42
2021/05/24 00:25:08;;;;;;;6.30;2.78;;;;;;;13.67;72.20;93794.13;5052514;28;20071;-41
2021/05/24 00:27:34;;;;;;;1.92;1.75;;;;;;;13.09;73.88;93777.84;5051012;28;20460;-41
2021/05/24 00:30:00;;;;;;;2.83;2.20;;;;;;;13.12;74.58;93790.59;5051749;28;20032;-41
2021/05/24 00:32:25;;;;;;;2.08;1.60;;;;;;;12.76;75.79;93778.97;5052280;28;20497;-41
2021/05/24 00:34:51;;;;;;;3.60;2.17;;;;;;;12.87;77.05;93797.97;5039577;28;20021;-42
2021/05/24 00:37:17;;;;;;;2.90;1.83;;;;;;;13.14;75.94;93801.88;5032179;28;20025;-41
2021/05/24 00:39:42;;;;;;;1.55;1.45;;;;;;;13.37;74.43;93810.88;5032315;28;20021;-40
2021/05/24 00:42:08;;;;;;;3.63;3.25;;;;;;;13.35;72.73;93796.84;5032125;28;20027;-43
2021/05/24 00:44:33;;;;;;;3.00;2.15;;;;;;;13.41;72.75;93805.69;5014626;28;20022;-41
2021/05/24 00:46:59;;;;;;;4.50;2.95;;;;;;;13.41;73.00;93793.84;5032253;28;20625;-42
2021/05/24 00:49:26;;;;;;;3.92;2.30;;;;;;;13.47;72.47;93797.91;5041118;28;20057;-40
2021/05/24 00:51:54;;;;;;;2.92;1.67;;;;;;;13.30;72.89;93811.63;5052190;28;20031;-40
2021/05/24 00:54:20;;;;;;;3.00;2.00;;;;;;;13.31;72.80;93818.66;5051914;28;20017;-43
2021/05/24 00:56:45;;;;;;;12.70;2.95;;;;;;;13.34;72.71;93822.34;5051786;28;20040;-42
2021/05/24 00:59:11;;;;;;;3.22;2.60;;;;;;;13.23;73.47;93811.66;5051829;28;20021;-43
2021/05/24 01:01:36;;;;;;;5.15;2.35;;;;;;;13.26;73.07;93799.44;5051832;28;20383;-40
2021/05/24 01:04:02;;;;;;;3.60;2.72;;;;;;;13.04;74.19;93803.69;5051867;28;20040;-42
2021/05/24 01:06:28;;;;;;;2.38;1.98;;;;;;;13.21;73.75;93817.75;5051438;28;20353;-41
2021/05/24 01:08:53;;;;;;;2.35;1.95;;;;;;;12.95;73.43;93809.78;5031211;28;20034;-41
2021/05/24 01:11:22;;;;;;;5.47;2.85;;;;;;;12.98;73.48;93817.00;5031039;28;20025;-43
2021/05/24 01:13:48;;;;;;;5.07;3.08;;;;;;;12.81;74.08;93814.81;5030888;28;20028;-42
2021/05/24 01:16:13;;;;;;;4.40;2.65;;;;;;;12.67;75.06;93829.38;5031248;28;20069;-41
2021/05/24 01:18:39;;;;;;;4.82;2.35;;;;;;;12.74;74.84;93832.16;5031407;28;20029;-42
2021/05/24 01:21:12;;;;;;;4.35;3.03;;;;;;;12.79;75.04;93824.97;5031318;28;20021;-41
2021/05/24 01:23:42;;;;;;;3.33;2.65;;;;;;;12.67;75.60;93832.16;5031717;28;20072;-41
2021/05/24 01:26:08;;;;;;;2.97;2.40;;;;;;;12.71;74.89;93827.72;5031781;28;20083;-41
2021/05/24 01:28:33;;;;;;;4.40;2.42;;;;;;;12.71;74.64;93836.03;5031327;28;20033;-41
2021/05/24 01:31:00;;;;;;;1.65;1.48;;;;;;;12.77;73.95;93831.06;5031442;28;20026;-40
2021/05/24 01:33:25;;;;;;;3.17;2.13;;;;;;;12.77;73.41;93844.19;5031111;28;20116;-40
2021/05/24 01:35:50;;;;;;;1.95;1.73;;;;;;;12.64;73.43;93833.28;5031233;28;20104;-40
2021/05/24 01:38:16;;;;;;;2.35;1.63;;;;;;;12.71;73.80;93833.25;5029615;28;20032;-40
2021/05/24 01:40:43;;;;;;;4.60;2.15;;;;;;;12.74;73.85;93832.16;5030105;28;20032;-40
2021/05/24 01:43:09;;;;;;;3.65;2.42;;;;;;;12.85;73.72;93847.69;5027692;28;20035;-40
2021/05/24 01:45:35;;;;;;;2.33;2.08;;;;;;;12.72;73.48;93839.53;5031977;28;20026;-40
2021/05/24 01:48:03;;;;;;;1.98;1.65;;;;;;;12.28;74.20;93854.81;5029936;28;20021;-40
2021/05/24 01:50:28;;;;;;;2.30;1.77;;;;;;;12.03;75.26;93849.75;5029695;28;20691;-40
2021/05/24 01:52:54;;;;;;;1.50;1.40;;;;;;;11.99;75.39;93866.00;5030205;28;20100;-42
2021/05/24 01:55:19;;;;;;;1.95;1.83;;;;;;;12.10;75.65;93856.59;5029064;28;20029;-44
2021/05/24 01:57:45;;;;;;;3.03;2.13;;;;;;;12.19;75.83;93858.84;5029542;28;20025;-41
2021/05/24 02:00:19;;;;;;;2.42;2.15;;;;;;;12.38;75.40;93861.28;5029987;28;20519;-41
2021/05/24 02:02:45;;;;;;;1.55;1.38;;;;;;;12.24;74.48;93843.34;5029522;28;20032;-40
2021/05/24 02:05:12;;;;;;;5.15;2.58;;;;;;;12.21;74.39;93858.31;5029648;28;20419;-40
2021/05/24 02:07:39;;;;;;;1.77;1.20;;;;;;;12.18;74.72;93863.66;5035628;28;20037;-40
2021/05/24 02:10:20;;;;;;;2.72;2.17;;;;;;;12.18;74.24;93879.50;5049869;28;20021;-41
2021/05/24 02:12:46;;;;;;;3.67;2.17;;;;;;;12.10;74.84;93884.28;5049862;28;20036;-40
2021/05/24 02:15:17;;;;;;;5.30;3.92;;;;;;;11.85;75.63;93881.22;5049487;28;20021;-41
2021/05/24 02:17:42;;;;;;;4.90;2.78;;;;;;;12.07;75.21;93879.84;5049435;28;20102;-41
2021/05/24 02:20:08;;;;;;;6.45;2.92;;;;;;;12.16;75.32;93879.31;5049350;28;20434;-40
2021/05/24 02:22:34;;;;;;;3.85;2.67;;;;;;;12.17;75.14;93878.03;5049338;28;20024;-41
2021/05/24 02:24:59;;;;;;;5.88;3.50;;;;;;;11.85;76.27;93894.31;5049264;28;20059;-42
2021/05/24 02:27:25;;;;;;;3.65;3.30;;;;;;;11.53;76.74;93894.69;5049702;28;20033;-41
2021/05/24 02:29:50;;;;;;;4.30;2.60;;;;;;;11.29;78.10;93893.06;5049584;28;20035;-41
2021/05/24 02:32:15;;;;;;;10.95;1.85;;;;;;;10.99;80.51;93903.13;5040714;28;20030;-40
2021/05/24 02:34:41;;;;;;;2.10;1.83;;;;;;;11.30;80.17;93899.34;5029937;28;20018;-41
2021/05/24 02:37:06;;;;;;;1.60;1.50;;;;;;;11.39;79.55;93899.56;5029752;28;20017;-42
2021/05/24 02:39:32;;;;;;;2.42;1.70;;;;;;;11.56;79.71;93896.38;5029519;28;20518;-41
2021/05/24 02:41:57;;;;;;;4.53;2.53;;;;;;;11.69;79.02;93907.34;5029562;28;20026;-40
2021/05/24 02:44:23;;;;;;;2.65;2.35;;;;;;;11.81;77.77;93914.03;5029280;28;20041;-42
2021/05/24 02:46:48;;;;;;;4.55;2.85;;;;;;;11.71;77.12;93915.09;5029691;28;20033;-40
2021/05/24 02:49:15;;;;;;;2.95;2.67;;;;;;;11.60;77.71;93910.59;5029397;28;20423;-42
2021/05/24 02:51:40;;;;;;;4.35;2.95;;;;;;;11.75;78.23;93921.00;5029482;28;20017;-39
2021/05/24 02:54:06;;;;;;;3.40;2.75;;;;;;;11.82;78.29;93934.16;5028902;28;20471;-40
2021/05/24 02:56:32;;;;;;;4.60;3.22;;;;;;;11.89;78.23;93925.88;5029481;28;20033;-40
2021/05/24 02:58:58;;;;;;;3.42;2.67;;;;;;;12.02;77.98;93927.78;5029446;28;20021;-40
2021/05/24 03:01:26;;;;;;;4.30;2.33;;;;;;;12.05;78.15;93932.97;5042861;28;20025;-44
2021/05/24 03:03:56;;;;;;;2.53;1.85;;;;;;;11.87;77.33;93945.06;5048991;28;20021;-41
2021/05/24 03:06:22;;;;;;;2.90;1.77;;;;;;;11.70;77.67;93919.88;5048951;28;20437;-40
2021/05/24 03:08:48;;;;;;;4.18;2.35;;;;;;;11.91;78.09;93955.78;5033155;28;20461;-40
2021/05/24 03:11:18;;;;;;;2.25;1.98;;;;;;;11.67;78.66;93947.91;5028874;28;20056;-40
2021/05/24 03:13:43;;;;;;;3.38;2.00;;;;;;;11.74;78.73;93945.16;5029004;28;20657;-40
2021/05/24 03:16:08;;;;;;;2.08;1.67;;;;;;;11.78;77.54;93958.66;5028786;28;20144;-42
2021/05/24 03:18:34;;;;;;;4.18;2.67;;;;;;;11.74;77.87;93964.53;5029219;28;20049;-41
2021/05/24 03:20:59;;;;;;;3.65;2.10;;;;;;;11.86;78.01;93965.72;5028805;28;20079;-40
2021/05/24 03:23:25;;;;;;;2.10;1.83;;;;;;;11.89;78.09;93970.16;5029121;28;20053;-41
2021/05/24 03:25:50;;;;;;;2.78;2.22;;;;;;;11.84;78.56;93970.31;5028900;28;20037;-40
2021/05/24 03:28:16;;;;;;;3.67;2.10;;;;;;;11.96;78.11;93968.72;5040773;28;20028;-40
2021/05/24 03:30:41;;;;;;;1.88;1.77;;;;;;;12.07;78.39;93974.69;5029137;28;20527;-40
2021/05/24 03:33:06;;;;;;;4.72;2.45;;;;;;;12.15;78.20;93972.69;5028705;28;20029;-40
2021/05/24 03:35:32;;;;;;;2.45;2.05;;;;;;;12.31;77.86;93967.97;5028718;28;20033;-43
2021/05/24 03:37:58;;;;;;;2.47;1.80;;;;;;;12.33;77.46;93970.19;5027778;28;20021;-40
2021/05/24 03:40:24;;;;;;;3.92;2.13;;;;;;;12.46;77.19;93956.94;5027230;28;20033;-40
2021/05/24 03:42:49;;;;;;;2.45;2.08;;;;;;;12.62;77.22;93974.34;5043718;28;20033;-41
2021/05/24 03:45:18;;;;;;;3.85;1.35;;;;;;;12.91;77.43;93970.16;5048156;28;20033;-41
2021/05/24 03:47:45;;;;;;;1.52;1.30;;;;;;;13.21;77.30;93977.84;5048158;28;20021;-41
2021/05/24 03:50:11;;;;;;;2.17;1.50;;;;;;;13.55;75.26;93978.22;5048538;28;20399;-42
2021/05/24 03:52:36;;;;;;;1.70;1.58;;;;;;;13.84;73.99;93979.47;5035302;28;20410;-40
2021/05/24 03:55:03;;;;;;;4.25;1.35;;;;;;;14.07;73.16;93979.44;5028823;28;20029;-40
2021/05/24 03:57:28;;;;;;;3.15;1.05;;;;;;;14.24;72.64;93977.53;5028749;28;20040;-40
2021/05/24 03:59:54;;;;;;;1.42;1.27;;;;;;;14.52;70.50;93984.88;5028574;28;20048;-40
2021/05/24 04:02:19;;;;;;;0.57;0.57;;;;;;;14.72;69.09;93994.25;5031068;28;20029;-40
2021/05/24 04:04:45;;;;;;;0.85;0.70;;;;;;;14.89;67.50;93994.34;5032184;28;20099;-41
2021/05/24 04:07:13;;;;;;;4.45;1.60;;;;;;;15.08;67.05;94005.72;5031838;28;20503;-39
2021/05/24 04:09:38;;;;;;;1.63;0.65;;;;;;;15.23;66.41;93999.31;5032533;28;20079;-40
2021/05/24 04:12:04;;;;;;;1.08;0.90;;;;;;;15.37;65.89;94006.09;5032430;28;20033;-41
2021/05/24 04:14:32;;;;;;;0.95;0.88;;;;;;;15.55;65.33;94000.06;5032167;28;20021;-41
2021/05/24 04:16:57;;;;;;;0.80;0.80;;;;;;;15.69;64.85;94003.28;5031760;28;20083;-42
2021/05/24 04:19:23;;;;;;;3.05;0.77;;;;;;;15.73;64.12;94000.84;5031971;28;20034;-41
2021/05/24 04:21:48;;;;;;;7.25;1.77;;;;;;;15.87;63.87;94010.41;5031622;28;20030;-40
2021/05/24 04:24:15;;;;;;;0.98;0.88;;;;;;;15.92;63.93;94001.78;5031596;28;20028;-42
2021/05/24 04:26:40;;;;;;;1.50;1.13;;;;;;;15.90;63.63;94009.22;5032034;28;20033;-43
2021/05/24 04:29:07;;;;;;;1.02;0.93;;;;;;;15.87;64.25;94013.19;5031798;28;20032;-40
2021/05/24 04:31:34;;;;;;;1.05;0.80;;;;;;;15.88;64.37;94004.25;5031813;28;20034;-40
2021/05/24 04:33:59;;;;;;;0.95;0.85;;;;;;;15.88;63.46;94020.22;5013652;28;20018;-43
2021/05/24 04:36:25;;;;;;;1.08;0.98;;;;;;;16.05;63.26;94017.44;5031718;28;20544;-42
2021/05/24 04:38:50;;;;;;;0.80;0.80;;;;;;;16.20;63.03;94022.16;5045988;28;20032;-42
2021/05/24 04:41:16;;;;;;;0.80;0.80;;;;;;;16.24;63.48;94017.63;5051477;28;20033;-40
2021/05/24 04:43:42;;;;;;;8.30;0.90;;;;;;;16.39;64.77;94039.81;5051578;28;20024;-44
2021/05/24 04:46:08;;;;;;;1.38;0.90;;;;;;;16.46;61.82;94030.59;5036368;28;20112;-41
2021/05/24 04:48:36;;;;;;;1.17;0.73;;;;;;;16.56;61.93;94028.69;5031551;28;20104;-44
2021/05/24 04:51:05;;;;;;;3.45;1.02;;;;;;;16.68;61.36;94026.13;5011769;28;20100;-43
2021/05/24 04:53:31;;;;;;;2.20;1.10;;;;;;;16.91;62.19;94034.22;5011873;28;20438;-45
2021/05/24 04:55:57;;;;;;;0.88;0.60;;;;;;;16.98;59.23;94031.34;5011410;28;20037;-45
2021/05/24 04:58:22;;;;;;;0.75;0.60;;;;;;;17.15;58.07;94030.56;5011339;28;20022;-44
2021/05/24 05:00:48;;;;;;;2.53;0.70;;;;;;;17.22;58.23;94036.03;5024915;28;20029;-42
2021/05/24 05:03:14;;;;;;;6.07;1.00;;;;;;;17.39;57.22;94040.84;5029510;28;20037;-41
2021/05/24 05:05:40;;;;;;;1.55;0.90;;;;;;;17.53;55.66;94055.94;5030422;28;20518;-42
2021/05/24 05:08:06;;;;;;;2.78;0.93;;;;;;;17.63;54.51;94048.34;5031561;28;20518;-41
2021/05/24 05:10:31;;;;;;;0.52;0.52;;;;;;;17.67;55.09;94062.59;5030735;28;20022;-42
2021/05/24 05:12:57;;;;;;;1.60;0.60;;;;;;;17.72;55.08;94056.03;5029162;28;20522;-44
2021/05/24 05:15:22;;;;;;;0.60;0.60;;;;;;;17.74;54.34;94050.59;5030683;28;20079;-42
2021/05/24 05:17:48;;;;;;;6.65;0.73;;;;;;;17.80;54.24;94067.09;5029989;28;20056;-41
2021/05/24 05:20:13;;;;;;;0.60;0.50;;;;;;;17.85;53.73;94072.41;5030127;28;20508;-43
2021/05/24 05:22:39;;;;;;;1.17;0.40;;;;;;;17.89;54.02;94069.91;5029392;28;20574;-41
2021/05/24 05:25:05;;;;;;;0.95;0.70;;;;;;;17.74;53.37;94072.19;5029663;28;20037;-42
2021/05/24 05:27:31;;;;;;;1.17;0.50;;;;;;;17.83;53.68;94075.03;5027941;28;20053;-44
2021/05/24 05:29:57;;;;;;;0.68;0.68;;;;;;;17.96;53.99;94074.66;5030101;28;20108;-43
2021/05/24 05:32:22;;;;;;;1.75;0.63;;;;;;;18.05;53.37;94067.63;5029945;28;20025;-43
2021/05/24 05:34:48;;;;;;;2.05;0.57;;;;;;;18.06;53.27;94069.09;5029989;28;20087;-43
2021/05/24 05:37:13;;;;;;;0.50;0.50;;;;;;;18.07;52.48;94076.91;5020220;28;20029;-45
2021/05/24 05:39:39;;;;;;;5.55;0.80;;;;;;;18.13;52.82;94077.34;5020814;28;20458;-44
2021/05/24 05:42:05;;;;;;;9.55;1.02;;;;;;;18.14;51.46;94092.81;5026501;28;20044;-42
2021/05/24 05:44:30;;;;;;;3.90;1.27;;;;;;;18.19;51.41;94094.56;5020497;28;20067;-42
2021/05/24 05:46:56;;;;;;;0.68;0.60;;;;;;;18.22;50.86;94080.75;5027746;28;20059;-44
2021/05/24 05:49:21;;;;;;;0.68;0.68;;;;;;;18.48;51.21;94086.31;5027323;28;20508;-42
2021/05/24 05:51:47;;;;;;;3.45;0.98;;;;;;;18.53;50.97;94081.75;5026976;28;20022;-44
2021/05/24 05:54:13;;;;;;;1.77;1.08;;;;;;;18.67;51.52;94080.75;5029815;28;20025;-42
2021/05/24 05:56:38;;;;;;;1.55;0.68;;;;;;;18.84;52.08;94077.09;5030054;28;20036;-43
2021/05/24 05:59:04;;;;;;;1.35;0.95;;;;;;;19.00;50.82;94081.06;5027223;28;20682;-42
2021/05/24 06:01:29;;;;;;;7.18;1.45;;;;;;;19.19;49.66;94085.94;5029925;28;20048;-43
2021/05/24 06:03:55;;;;;;;2.70;0.98;;;;;;;19.40;50.53;94091.66;5029895;28;20546;-45
2021/05/24 06:06:20;;;;;;;2.72;1.35;;;;;;;19.65;48.75;94086.47;5029700;28;20048;-43
2021/05/24 06:08:46;;;;;;;2.30;1.40;;;;;;;19.88;48.44;94092.28;5045404;28;20040;-43
2021/05/24 06:11:11;;;;;;;4.45;2.65;;;;;;;20.09;49.00;94089.56;5037415;28;20044;-45
2021/05/24 06:13:37;;;;;;;5.38;1.52;;;;;;;20.15;49.48;94092.03;5029296;28;20029;-39
2021/05/24 06:16:02;;;;;;;0.88;0.70;;;;;;;20.29;48.69;94098.66;5029548;28;20041;-39
2021/05/24 06:18:28;;;;;;;0.32;0.32;;;;;;;20.23;47.79;94087.00;5029379;28;20777;-40
2021/05/24 06:20:55;;;;;;;3.72;1.13;;;;;;;20.30;47.98;94105.72;5028162;28;20029;-41
2021/05/24 06:23:20;;;;;;;2.92;0.88;;;;;;;20.30;46.68;94100.13;5028039;28;20033;-42
2021/05/24 06:25:46;;;;;;;1.73;0.63;;;;;;;20.16;48.43;94104.75;5027729;28;20040;-42
2021/05/24 06:28:12;;;;;;;1.30;0.73;;;;;;;20.14;47.40;94110.22;5028502;28;20026;-44
2021/05/24 06:30:38;;;;;;;1.15;0.63;;;;;;;20.21;47.64;94106.50;5036709;28;20429;-40
2021/05/24 06:33:04;;;;;;;1.38;0.47;;;;;;;20.30;48.71;94114.13;5047954;28;20029;-41
2021/05/24 06:35:30;;;;;;;0.50;0.50;;;;;;;20.37;47.30;94108.34;5031957;28;20026;-40
2021/05/24 06:37:55;;;;;;;0.40;0.32;;;;;;;20.56;46.36;94104.72;5029705;28;20407;-40
2021/05/24 06:40:21;;;;;;;4.28;0.77;;;;;;;20.86;46.03;94115.16;5029671;28;20045;-40
2021/05/24 06:42:47;;;;;;;0.60;0.52;;;;;;;20.98;44.68;94115.22;5029361;28;20100;-40
2021/05/24 06:45:14;;;;;;;1.13;0.75;;;;;;;21.16;44.21;94112.91;5029397;28;20021;-42
2021/05/24 06:47:40;;;;;;;0.82;0.82;;;;;;;21.24;43.90;94117.00;5029550;28;20442;-43
2021/05/24 06:50:06;;;;;;;0.80;0.65;;;;;;;21.58;44.99;94121.25;5029193;28;20029;-41
2021/05/24 06:52:32;;;;;;;2.03;1.00;;;;;;;21.82;43.43;94120.00;5029184;28;20052;-42
2021/05/24 06:54:58;;;;;;;3.00;0.80;;;;;;;21.91;42.65;94122.00;5029059;28;20103;-40
2021/05/24 06:57:23;;;;;;;0.55;0.55;;;;;;;22.04;41.66;94118.63;5029548;28;20061;-40
2021/05/24 06:59:49;;;;;;;1.27;0.70;;;;;;;22.26;42.52;94108.72;5029386;28;20033;-43
2021/05/24 07:02:16;;;;;;;1.80;0.60;;;;;;;22.10;42.17;94104.19;5028996;28;20469;-39
2021/05/24 07:04:45;;;;;;;0.40;0.40;;;;;;;22.15;41.74;94100.28;5029021;28;20501;-41
2021/05/24 07:07:11;;;;;;;2.35;1.85;;;;;;;22.24;41.07;94102.97;5028964;28;20064;-39
2021/05/24 07:09:36;;;;;;;1.25;1.15;;;;;;;22.23;43.05;94104.31;5029260;28;20518;-40
2021/05/24 07:12:02;;;;;;;0.82;0.68;;;;;;;22.29;42.20;94084.25;5019098;28;20133;-40
2021/05/24 07:14:28;;;;;;;3.08;0.82;;;;;;;22.53;40.24;94100.53;5043208;28;20032;-39
2021/05/24 07:16:54;;;;;;;2.38;0.52;;;;;;;22.98;40.58;94097.53;5048689;28;20041;-40
2021/05/24 07:19:20;;;;;;;0.80;0.73;;;;;;;23.33;39.48;94095.41;5035397;28;20462;-41
2021/05/24 07:21:46;;;;;;;0.50;0.50;;;;;;;23.41;38.69;94083.84;5028989;28;20025;-39
2021/05/24 07:24:11;;;;;;;2.25;0.60;;;;;;;23.58;39.33;94083.41;5028879;28;20059;-40
2021/05/24 07:26:37;;;;;;;1.25;0.80;;;;;;;24.05;38.16;94085.38;5035164;28;20021;-39
2021/05/24 07:29:03;;;;;;;1.75;0.80;;;;;;;25.02;34.77;94076.34;5049053;28;20403;-39
2021/05/24 07:31:28;;;;;;;0.68;0.60;;;;;;;26.51;34.30;94092.00;5048773;28;20028;-40
2021/05/24 07:33:54;;;;;;;1.90;0.70;;;;;;;27.95;30.41;94082.56;5044435;28;20021;-39
2021/05/24 07:36:19;;;;;;;0.80;0.43;;;;;;;28.75;28.51;94087.06;5029788;28;20029;-40
2021/05/24 07:38:45;;;;;;;0.73;0.73;;;;;;;29.73;27.60;94084.09;5032660;28;20095;-40
2021/05/24 07:41:10;;;;;;;0.82;0.80;;;;;;;30.10;26.84;94086.75;5032871;28;20032;-40
2021/05/24 07:43:36;;;;;;;1.05;0.63;;;;;;;30.94;25.54;94085.00;5032798;28;20051;-40
2021/05/24 07:46:02;;;;;;;2.70;0.50;;;;;;;31.78;24.89;94103.66;5032601;28;20025;-40
2021/05/24 07:48:27;;;;;;;1.05;0.40;;;;;;;32.70;23.76;94100.16;5032205;28;20025;-40
2021/05/24 07:50:53;;;;;;;0.85;0.50;;;;;;;33.21;23.55;94110.53;5032406;28;20032;-40
2021/05/24 07:53:18;;;;;;;0.32;0.32;;;;;;;32.86;22.21;94106.22;5031984;28;20048;-40
2021/05/24 07:55:44;;;;;;;0.70;0.57;;;;;;;32.73;22.71;94115.97;5031426;28;20044;-40
2021/05/24 07:58:09;;;;;;;0.65;0.50;;;;;;;33.13;22.20;94115.38;5047983;28;20083;-42
2021/05/24 08:00:35;;;;;;;1.52;0.50;;;;;;;33.56;22.08;94111.94;5032087;28;20119;-40
2021/05/24 08:03:00;;;;;;;8.35;0.85;;;;;;;34.35;21.60;94114.75;5031970;28;20017;-41
2021/05/24 08:05:26;;;;;;;0.80;0.60;;;;;;;34.16;21.62;94112.28;5031957;28;20029;-40
2021/05/24 08:07:51;;;;;;;1.13;0.68;;;;;;;34.94;20.77;94107.72;5040033;28;20017;-40
2021/05/24 08:10:17;;;;;;;2.17;0.75;;;;;;;35.23;20.46;94108.09;5052146;28;20075;-40
2021/05/24 08:12:44;;;;;;;4.93;1.48;;;;;;;35.59;19.63;94108.50;5052071;28;20457;-40
2021/05/24 08:15:14;;;;;;;0.40;0.40;;;;;;;35.78;20.00;94105.13;5034301;28;20029;-41
2021/05/24 08:17:41;;;;;;;1.10;0.73;;;;;;;36.18;20.69;94107.66;5051554;28;20041;-41
2021/05/24 08:20:08;;;;;;;0.75;0.50;;;;;;;36.56;19.08;94098.59;5048701;28;20027;-40
2021/05/24 08:22:33;;;;;;;0.35;0.30;;;;;;;36.70;18.43;94104.47;5047961;28;20026;-40
2021/05/24 08:24:59;;;;;;;1.25;0.95;;;;;;;36.40;19.74;94104.97;5031595;28;20021;-41
2021/05/24 08:27:25;;;;;;;0.80;0.68;;;;;;;36.56;19.30;94112.97;5032226;28;20017;-40
2021/05/24 08:29:51;;;;;;;1.30;1.08;;;;;;;36.45;20.06;94115.06;5031849;28;20080;-40
2021/05/24 08:32:16;;;;;;;2.28;1.38;;;;;;;36.80;19.18;94110.25;5032014;28;20023;-41
2021/05/24 08:34:42;;;;;;;1.23;0.60;;;;;;;36.92;18.56;94110.38;5031938;28;20021;-41
2021/05/24 08:37:07;;;;;;;1.27;0.63;;;;;;;37.07;19.38;94106.13;5031734;28;20433;-40
2021/05/24 08:39:33;;;;;;;1.95;1.05;;;;;;;36.39;19.50;94108.53;5032082;28;20524;-42
2021/05/24 08:41:59;;;;;;;2.78;0.98;;;;;;;36.61;19.37;94100.06;5031512;28;20025;-41
2021/05/24 08:44:27;;;;;;;1.25;0.68;;;;;;;35.78;19.91;94096.50;5031430;28;20052;-41
2021/05/24 08:46:52;;;;;;;;;;;;;;;36.54;19.36;94098.59;5032092;28;20025;-42
2021/05/24 08:49:18;;;;;;;1.70;0.70;;;;;;;36.90;18.54;94104.59;5046736;28;19913;-41
2021/05/24 08:51:43;;;;;;;1.67;0.90;;;;;;;36.74;18.85;94100.88;5031492;28;20044;-41
2021/05/24 08:54:09;;;;;;;4.82;0.60;;;;;;;37.38;18.54;94106.28;5031606;28;20032;-41
2021/05/24 08:56:34;;;;;;;0.60;0.50;;;;;;;37.90;18.25;94104.25;5031629;28;20533;-42
2021/05/24 08:59:01;;;;;;;0.60;0.60;;;;;;;37.82;18.73;94101.34;5031190;28;20029;-41
2021/05/24 09:01:27;;;;;;;0.43;0.40;;;;;;;37.73;19.43;94096.97;5031343;28;20021;-42
2021/05/24 09:04:01;;;;;;;1.30;0.57;;;;;;;37.89;18.40;94093.44;5031115;28;20599;-42
2021/05/24 09:06:41;;;;;;;1.27;0.60;;;;;;;37.84;18.12;94097.75;5031161;28;20031;-41
2021/05/24 09:09:26;;;;;;;1.60;0.55;;;;;;;37.48;18.36;94089.00;5030361;28;20057;-41
2021/05/24 09:11:54;;;;;;;0.50;0.50;;;;;;;38.03;17.24;94079.03;5031218;28;20029;-41
2021/05/24 09:14:20;;;;;;;;;;;;;;;38.09;17.35;94084.09;5031578;28;20079;-42
2021/05/24 09:16:56;;;;;;;1.40;0.68;;;;;;;38.17;16.79;94081.91;5043587;28;19925;-41
2021/05/24 09:19:28;;;;;;;6.25;1.17;;;;;;;38.55;17.84;94081.91;5036430;28;20533;-41
2021/05/24 09:21:59;;;;;;;2.97;0.80;;;;;;;38.77;16.80;94074.69;5032669;28;20033;-41
2021/05/24 09:24:32;;;;;;;0.80;0.57;;;;;;;38.71;18.17;94071.78;5050658;28;20032;-42
2021/05/24 09:26:59;;;;;;;1.80;0.90;;;;;;;38.79;16.51;94071.78;5050270;28;20021;-41
2021/05/24 09:29:44;;;;;;;1.42;0.63;;;;;;;39.01;17.90;94069.53;5050699;28;20032;-40
2021/05/24 09:32:20;;;;;;;0.73;0.68;;;;;;;38.31;17.49;94072.56;5050535;28;20036;-41
2021/05/24 09:34:48;;;;;;;1.45;0.73;;;;;;;38.29;17.86;94067.50;5013035;28;20021;-41
2021/05/24 09:37:16;;;;;;;0.68;0.68;;;;;;;38.30;17.76;94054.53;5029920;28;20059;-41
2021/05/24 09:39:42;;;;;;;1.02;0.50;;;;;;;38.13;18.15;94050.19;5030065;28;20634;-44
2021/05/24 09:42:13;;;;;;;3.50;0.80;;;;;;;37.97;18.06;94047.31;5030553;28;20033;-44
2021/05/24 09:44:46;;;;;;;0.80;0.57;;;;;;;37.99;17.62;94047.31;5030357;28;20577;-42
2021/05/24 09:47:12;;;;;;;1.35;0.60;;;;;;;38.30;18.01;94059.56;5030365;28;20076;-42
2021/05/24 09:49:38;;;;;;;3.28;0.70;;;;;;;38.52;17.97;94042.25;5030320;28;20100;-43
2021/05/24 09:52:04;;;;;;;3.50;0.82;;;;;;;38.71;18.36;94037.88;5030223;28;20034;-44
2021/05/24 09:54:35;;;;;;;1.38;0.50;;;;;;;39.00;16.83;94050.78;5030285;28;20032;-43
2021/05/24 09:57:05;;;;;;;0.50;0.45;;;;;;;38.51;17.57;94038.63;5029742;28;20111;-42
2021/05/24 09:59:33;;;;;;;1.45;0.80;;;;;;;38.32;17.94;94054.53;5029196;28;20045;-42
2021/05/24 10:02:01;;;;;;;11.27;1.60;;;;;;;38.43;18.23;94052.34;5030407;28;20052;-42
2021/05/24 10:04:31;;;;;;;0.43;0.40;;;;;;;38.85;17.03;94049.41;5029812;28;20049;-42
2021/05/24 10:06:58;;;;;;;0.60;0.60;;;;;;;38.36;17.73;94034.31;5029648;28;20120;-41
2021/05/24 10:09:24;;;;;;;2.58;0.70;;;;;;;38.70;17.65;94050.88;5030195;28;20116;-41
2021/05/24 10:11:51;;;;;;;0.82;0.50;;;;;;;37.71;17.59;94061.66;5030005;28;20037;-43
2021/05/24 10:14:21;;;;;;;1.27;0.80;;;;;;;37.23;17.87;94051.47;5030094;28;20413;-42
2021/05/24 10:16:48;;;;;;;1.55;0.90;;;;;;;36.46;18.72;94055.41;5047660;28;20102;-41
2021/05/24 10:19:17;;;;;;;2.03;0.80;;;;;;;36.16;20.83;94052.28;5049979;28;20494;-42
2021/05/24 10:21:44;;;;;;;1.45;0.73;;;;;;;36.21;19.69;94056.66;5050102;28;20029;-42
2021/05/24 10:24:10;;;;;;;1.08;0.80;;;;;;;36.58;20.43;94041.06;5049110;28;20032;-43
2021/05/24 10:26:37;;;;;;;0.47;0.47;;;;;;;37.30;20.92;94045.72;5049761;28;20265;-42
2021/05/24 10:29:04;;;;;;;0.50;0.50;;;;;;;37.62;19.08;94054.47;5049770;28;20052;-41
2021/05/24 10:31:32;;;;;;;0.73;0.70;;;;;;;37.89;19.61;94053.81;5049886;28;20565;-42
2021/05/24 10:34:15;;;;;;;0.77;0.77;;;;;;;38.33;18.87;94043.72;5049569;28;20029;-42
2021/05/24 10:36:42;;;;;;;0.90;0.40;;;;;;;38.55;20.24;94041.50;5049585;28;20035;-41
2021/05/24 10:39:07;;;;;;;1.30;0.63;;;;;;;38.33;18.85;94055.97;5049411;28;20024;-42
2021/05/24 10:41:51;;;;;;;1.33;0.57;;;;;;;36.79;19.91;94051.28;5049377;28;20031;-41
2021/05/24 10:44:18;;;;;;;3.45;1.48;;;;;;;36.29;20.51;94045.19;5049443;28;20037;-42
2021/05/24 10:46:44;;;;;;;1.02;0.70;;;;;;;35.59;21.53;94040.28;5049249;28;20746;-45
2021/05/24 10:49:12;;;;;;;1.20;0.70;;;;;;;34.74;21.55;94044.31;5049308;28;20025;-42
2021/05/24 10:51:51;;;;;;;0.80;0.70;;;;;;;34.53;23.29;94045.47;5041096;28;20026;-41
2021/05/24 10:54:22;;;;;;;0.68;0.57;;;;;;;34.82;23.22;94044.44;5027549;28;20108;-43
2021/05/24 10:57:00;;;;;;;1.73;0.73;;;;;;;34.89;23.69;94033.75;5026434;28;20021;-41
2021/05/24 10:59:41;;;;;;;2.60;0.77;;;;;;;35.89;23.21;94036.25;5029010;28;20033;-42
2021/05/24 11:02:10;;;;;;;1.90;1.23;;;;;;;36.06;18.87;94037.84;5028857;28;20116;-43
2021/05/24 11:04:54;;;;;;;0.70;0.60;;;;;;;35.58;20.58;94032.41;5028498;28;20041;-40
2021/05/24 11:07:32;;;;;;;1.23;0.40;;;;;;;34.96;20.16;94035.25;5030937;28;20021;-41
2021/05/24 11:10:16;;;;;;;1.35;0.60;;;;;;;34.18;21.91;94035.66;5049244;28;20033;-41
2021/05/24 11:12:46;;;;;;;0.32;0.32;;;;;;;34.11;21.07;94031.25;5036628;28;20483;-42
2021/05/24 11:15:13;;;;;;;1.13;0.60;;;;;;;34.09;23.25;94030.50;5033090;28;20116;-44
2021/05/24 11:18:03;;;;;;;1.10;0.30;;;;;;;33.68;20.99;94037.69;5032823;28;20128;-43
2021/05/24 11:20:35;;;;;;;0.80;0.55;;;;;;;33.16;21.62;94037.47;5034013;28;20025;-42
2021/05/24 11:26:18;;;;;;;1.58;0.50;;;;;;;33.39;22.49;94022.16;5032901;28;20112;-42
2021/05/24 11:29:10;;;;;;;0.50;0.50;;;;;;;33.44;24.64;94017.22;5032679;28;20033;-44
2021/05/24 11:31:36;;;;;;;5.10;1.30;;;;;;;33.08;24.75;94022.28;5021048;28;20045;-42
2021/05/24 11:34:26;;;;;;;1.00;0.70;;;;;;;32.79;25.87;94024.56;5032457;28;20124;-41
2021/05/24 11:37:12;;;;;;;1.40;0.77;;;;;;;32.65;27.61;94023.56;5031096;28;20435;-43